Time;durP1;ratioP1;P1;durP2;ratioP2;P2;SDS_P1;SDS_P2;PMS_P1;PMS_P2;Temp;Humidity;BMP_temperature;BMP_pressure;BME280_temperature;BME280_humidity;BME280_pressure;Samples;Min_cycle;Max_cycle;Signal;HPM_P1;HPM_P2
2022/10/21 00:01:40;;;;;;;51.50;28.63;;;;;;;;;;4983766;28;20030;-62
2022/10/21 00:04:07;;;;;;;70.47;44.45;;;;;;;;;;4985234;28;20031;-62
2022/10/21 00:06:34;;;;;;;100.80;65.18;;;;;;;;;;4990469;28;20034;-63
2022/10/21 00:09:01;;;;;;;133.23;83.32;;;;;;;;;;4992865;28;20030;-63
2022/10/21 00:11:28;;;;;;;147.18;97.13;;;;;;;;;;4993260;28;20438;-63
2022/10/21 00:13:55;;;;;;;162.32;100.75;;;;;;;;;;4992322;28;20054;-63
2022/10/21 00:16:22;;;;;;;169.05;102.72;;;;;;;;;;4993168;28;20034;-62
2022/10/21 00:18:49;;;;;;;149.82;97.25;;;;;;;;;;4993552;28;20031;-62
2022/10/21 00:21:18;;;;;;;153.35;100.18;;;;;;;;;;4993509;28;20038;-63
2022/10/21 00:23:45;;;;;;;160.27;103.78;;;;;;;;;;4993465;28;20026;-63
2022/10/21 00:26:13;;;;;;;161.30;102.43;;;;;;;;;;4992647;28;20031;-63
2022/10/21 00:28:40;;;;;;;153.45;100.40;;;;;;;;;;4993131;28;20040;-63
2022/10/21 00:31:08;;;;;;;146.20;97.32;;;;;;;;;;4993329;28;20045;-64
2022/10/21 00:33:36;;;;;;;149.13;95.53;;;;;;;;;;4993697;28;20113;-62
2022/10/21 00:36:03;;;;;;;145.07;93.05;;;;;;;;;;4993268;28;20086;-63
2022/10/21 00:38:31;;;;;;;142.50;89.57;;;;;;;;;;4993025;28;20485;-63
2022/10/21 00:40:58;;;;;;;150.70;91.45;;;;;;;;;;4992749;28;20029;-63
2022/10/21 00:43:26;;;;;;;126.93;82.07;;;;;;;;;;4993080;28;20058;-62
2022/10/21 00:45:56;;;;;;;124.38;83.03;;;;;;;;;;4993552;28;20023;-62
2022/10/21 00:48:25;;;;;;;118.55;77.82;;;;;;;;;;4991986;28;20089;-63
2022/10/21 00:50:58;;;;;;;115.30;76.15;;;;;;;;;;4991665;28;20042;-62
2022/10/21 00:53:26;;;;;;;109.65;71.68;;;;;;;;;;4992846;28;20077;-64
2022/10/21 00:55:55;;;;;;;114.85;74.10;;;;;;;;;;4987018;28;20031;-63
2022/10/21 00:58:24;;;;;;;116.43;74.82;;;;;;;;;;4992736;28;20034;-63
2022/10/21 01:00:51;;;;;;;129.55;75.57;;;;;;;;;;4991158;28;20451;-63
2022/10/21 01:03:18;;;;;;;119.80;74.80;;;;;;;;;;4991856;28;20034;-63
2022/10/21 01:05:45;;;;;;;123.13;70.50;;;;;;;;;;4991722;28;20027;-62
2022/10/21 01:08:12;;;;;;;106.10;68.70;;;;;;;;;;4991557;28;20037;-63
2022/10/21 01:10:39;;;;;;;110.35;69.97;;;;;;;;;;4990214;28;20046;-64
2022/10/21 01:13:24;;;;;;;109.68;70.35;;;;;;;;;;4991075;28;20041;-64
2022/10/21 01:15:51;;;;;;;109.18;67.45;;;;;;;;;;4992207;28;20030;-64
2022/10/21 01:18:18;;;;;;;108.25;68.10;;;;;;;;;;4989556;28;20108;-63
2022/10/21 01:20:55;;;;;;;98.53;64.18;;;;;;;;;;4990200;28;20026;-64
2022/10/21 01:23:39;;;;;;;103.97;64.80;;;;;;;;;;4992359;28;20026;-64
2022/10/21 01:26:24;;;;;;;97.55;62.97;;;;;;;;;;4991330;28;20473;-63
2022/10/21 01:28:57;;;;;;;100.65;60.17;;;;;;;;;;4992132;28;20369;-63
2022/10/21 01:31:24;;;;;;;98.82;57.65;;;;;;;;;;4992304;28;20038;-64
2022/10/21 01:33:54;;;;;;;91.47;57.92;;;;;;;;;;4992387;28;20039;-64
2022/10/21 01:36:27;;;;;;;91.97;59.10;;;;;;;;;;4992069;28;20415;-63
2022/10/21 01:39:00;;;;;;;96.72;59.50;;;;;;;;;;4992179;28;20085;-64
2022/10/21 01:41:29;;;;;;;91.20;59.72;;;;;;;;;;4991011;28;20053;-64
2022/10/21 01:44:01;;;;;;;96.65;59.47;;;;;;;;;;4990235;28;20093;-64
2022/10/21 01:46:36;;;;;;;93.55;59.45;;;;;;;;;;4991002;28;20109;-63
2022/10/21 01:49:23;;;;;;;88.38;56.67;;;;;;;;;;4990969;28;20030;-62
2022/10/21 01:51:51;;;;;;;91.18;56.25;;;;;;;;;;4991415;28;20066;-64
2022/10/21 01:54:28;;;;;;;96.80;58.13;;;;;;;;;;4992508;28;20036;-64
2022/10/21 01:56:57;;;;;;;97.97;57.00;;;;;;;;;;4992511;28;20051;-64
2022/10/21 01:59:25;;;;;;;179.93;58.58;;;;;;;;;;4989496;28;20131;-64
2022/10/21 02:01:53;;;;;;;114.78;56.92;;;;;;;;;;4991653;28;20022;-64
2022/10/21 02:04:20;;;;;;;101.25;55.40;;;;;;;;;;4991705;28;20041;-64
2022/10/21 02:06:48;;;;;;;89.80;51.72;;;;;;;;;;4991758;28;20034;-64
2022/10/21 02:09:15;;;;;;;93.65;54.55;;;;;;;;;;4991863;28;20046;-65
2022/10/21 02:11:44;;;;;;;88.65;53.90;;;;;;;;;;4991634;28;20092;-64
2022/10/21 02:14:20;;;;;;;81.78;53.03;;;;;;;;;;4991768;28;20027;-65
2022/10/21 02:16:48;;;;;;;79.80;50.83;;;;;;;;;;4991492;28;20027;-65
2022/10/21 02:19:16;;;;;;;75.22;49.63;;;;;;;;;;4991466;28;20374;-64
2022/10/21 02:21:45;;;;;;;84.35;50.22;;;;;;;;;;4991559;28;20763;-63
2022/10/21 02:24:12;;;;;;;77.88;48.97;;;;;;;;;;4989812;28;20073;-63
2022/10/21 02:26:39;;;;;;;76.95;48.05;;;;;;;;;;4992032;28;20030;-63
2022/10/21 02:29:06;;;;;;;80.10;46.55;;;;;;;;;;4991925;28;20022;-61
2022/10/21 02:31:39;;;;;;;72.95;45.45;;;;;;;;;;4991961;28;20096;-63
2022/10/21 02:34:20;;;;;;;73.38;45.97;;;;;;;;;;4991215;28;20034;-64
2022/10/21 02:36:58;;;;;;;78.50;45.33;;;;;;;;;;4992120;28;20547;-64
2022/10/21 02:39:32;;;;;;;75.93;43.35;;;;;;;;;;4988497;28;20030;-62
2022/10/21 02:42:01;;;;;;;74.53;44.25;;;;;;;;;;4985375;28;20041;-63
2022/10/21 02:44:28;;;;;;;73.85;43.00;;;;;;;;;;4993238;28;20101;-62
2022/10/21 02:46:55;;;;;;;73.20;43.30;;;;;;;;;;4990341;28;20030;-62
2022/10/21 02:49:22;;;;;;;61.28;40.13;;;;;;;;;;4991205;28;20511;-63
2022/10/21 02:51:49;;;;;;;61.70;39.22;;;;;;;;;;4992703;28;20049;-63
2022/10/21 02:54:16;;;;;;;63.25;39.85;;;;;;;;;;4991927;28;20085;-63
2022/10/21 02:56:43;;;;;;;62.35;38.95;;;;;;;;;;4993390;28;20089;-63
2022/10/21 02:59:10;;;;;;;62.03;38.42;;;;;;;;;;4992240;28;20128;-62
2022/10/21 03:01:37;;;;;;;63.63;36.80;;;;;;;;;;4987875;28;20038;-62
2022/10/21 03:04:04;;;;;;;62.85;36.38;;;;;;;;;;4984716;28;20042;-62
2022/10/21 03:06:31;;;;;;;60.00;37.10;;;;;;;;;;4984426;28;20100;-62
2022/10/21 03:08:58;;;;;;;57.75;35.88;;;;;;;;;;4983961;28;20038;-63
2022/10/21 03:11:25;;;;;;;54.05;35.65;;;;;;;;;;4974600;28;20038;-62
2022/10/21 03:13:52;;;;;;;56.60;34.25;;;;;;;;;;4976316;28;20102;-62
2022/10/21 03:16:19;;;;;;;53.10;34.13;;;;;;;;;;4975950;28;20023;-64
2022/10/21 03:18:46;;;;;;;54.13;33.55;;;;;;;;;;4976074;28;20038;-63
2022/10/21 03:21:13;;;;;;;54.63;32.78;;;;;;;;;;4975959;28;20046;-63
2022/10/21 03:23:40;;;;;;;49.63;32.50;;;;;;;;;;4975915;28;20102;-63
2022/10/21 03:26:07;;;;;;;49.92;31.45;;;;;;;;;;4974632;28;20456;-63
2022/10/21 03:28:34;;;;;;;45.05;28.95;;;;;;;;;;4975833;28;20035;-63
2022/10/21 03:31:01;;;;;;;44.05;28.88;;;;;;;;;;4975749;28;20101;-63
2022/10/21 03:33:28;;;;;;;44.30;28.10;;;;;;;;;;4975654;28;20497;-63
2022/10/21 03:35:55;;;;;;;42.65;27.35;;;;;;;;;;4975487;28;20026;-63
2022/10/21 03:38:22;;;;;;;39.17;25.98;;;;;;;;;;4975647;28;20033;-64
2022/10/21 03:40:50;;;;;;;42.15;27.58;;;;;;;;;;4975649;28;20031;-63
2022/10/21 03:43:17;;;;;;;37.40;25.27;;;;;;;;;;4975446;28;20031;-63
2022/10/21 03:45:44;;;;;;;41.22;25.20;;;;;;;;;;4975673;28;20544;-63
2022/10/21 03:48:11;;;;;;;34.05;23.75;;;;;;;;;;4974133;28;20049;-63
2022/10/21 03:50:38;;;;;;;38.83;25.65;;;;;;;;;;4975370;28;20042;-63
2022/10/21 03:53:05;;;;;;;37.38;24.38;;;;;;;;;;4975463;28;20069;-63
2022/10/21 03:55:32;;;;;;;33.13;23.10;;;;;;;;;;4975312;28;20845;-63
2022/10/21 03:57:59;;;;;;;34.00;22.90;;;;;;;;;;4975261;28;20401;-63
2022/10/21 04:00:26;;;;;;;29.48;21.77;;;;;;;;;;4975478;28;20034;-63
2022/10/21 04:02:53;;;;;;;35.63;23.25;;;;;;;;;;4975180;28;20053;-63
2022/10/21 04:05:20;;;;;;;31.55;21.55;;;;;;;;;;4975127;28;20117;-63
2022/10/21 04:07:47;;;;;;;35.33;21.42;;;;;;;;;;4975099;28;20023;-63
2022/10/21 04:10:14;;;;;;;33.58;20.65;;;;;;;;;;4975047;28;20093;-63
2022/10/21 04:12:41;;;;;;;33.63;21.20;;;;;;;;;;4975201;28;20035;-63
2022/10/21 04:15:08;;;;;;;32.13;20.92;;;;;;;;;;4975139;28;20030;-63
2022/10/21 04:17:35;;;;;;;28.38;19.35;;;;;;;;;;4974734;28;20038;-63
2022/10/21 04:20:03;;;;;;;29.25;19.95;;;;;;;;;;5001025;22;20072;-54
2022/10/21 04:22:30;;;;;;;28.30;19.02;;;;;;;;;;5050257;28;20032;-47
2022/10/21 04:24:57;;;;;;;30.13;19.10;;;;;;;;;;5053736;28;20025;-48
2022/10/21 04:27:24;;;;;;;28.23;18.27;;;;;;;;;;5053765;28;20528;-47
2022/10/21 04:29:51;;;;;;;26.67;18.17;;;;;;;;;;5052846;28;20021;-50
2022/10/21 04:32:18;;;;;;;26.30;18.67;;;;;;;;;;5053654;28;20111;-48
2022/10/21 04:34:45;;;;;;;27.85;18.77;;;;;;;;;;5053104;28;20502;-50
2022/10/21 04:37:13;;;;;;;28.17;18.65;;;;;;;;;;5053466;28;20052;-49
2022/10/21 04:39:39;;;;;;;26.00;18.20;;;;;;;;;;5053090;28;20028;-48
2022/10/21 04:42:06;;;;;;;27.15;18.48;;;;;;;;;;5052903;28;20029;-49
2022/10/21 04:44:33;;;;;;;28.60;18.23;;;;;;;;;;5053221;28;20375;-49
2022/10/21 04:47:00;;;;;;;30.42;19.52;;;;;;;;;;5052898;28;20029;-47
2022/10/21 04:49:27;;;;;;;24.70;17.08;;;;;;;;;;5053159;28;20028;-51
2022/10/21 04:51:54;;;;;;;28.50;16.90;;;;;;;;;;5052886;28;20414;-47
2022/10/21 04:54:21;;;;;;;24.23;17.48;;;;;;;;;;5053072;28;20025;-47
2022/10/21 04:56:48;;;;;;;27.17;17.45;;;;;;;;;;5052927;28;20376;-50
2022/10/21 04:59:15;;;;;;;27.23;18.48;;;;;;;;;;5052523;28;20028;-51
2022/10/21 05:01:42;;;;;;;25.95;17.83;;;;;;;;;;5052841;28;20122;-48
2022/10/21 05:04:09;;;;;;;29.42;17.55;;;;;;;;;;5052824;28;20162;-49
2022/10/21 05:06:36;;;;;;;25.55;17.90;;;;;;;;;;5052783;28;20028;-49
2022/10/21 05:09:03;;;;;;;27.30;17.58;;;;;;;;;;5052777;28;20025;-48
2022/10/21 05:11:30;;;;;;;24.13;16.65;;;;;;;;;;5052712;28;20025;-48
2022/10/21 05:13:57;;;;;;;27.35;16.80;;;;;;;;;;5052660;28;20025;-47
2022/10/21 05:16:24;;;;;;;25.50;17.48;;;;;;;;;;5052558;28;20444;-49
2022/10/21 05:18:51;;;;;;;25.50;17.67;;;;;;;;;;5052632;28;20108;-48
2022/10/21 05:21:18;;;;;;;25.67;17.45;;;;;;;;;;5052363;28;20051;-48
2022/10/21 05:23:45;;;;;;;22.45;15.98;;;;;;;;;;5052419;28;20021;-47
2022/10/21 05:26:11;;;;;;;25.45;17.27;;;;;;;;;;5052354;28;20509;-47
2022/10/21 05:28:38;;;;;;;25.23;17.35;;;;;;;;;;5052524;28;20025;-51
2022/10/21 05:31:05;;;;;;;20.30;15.60;;;;;;;;;;5052243;28;20017;-49
2022/10/21 05:33:32;;;;;;;24.33;16.15;;;;;;;;;;5052336;28;20025;-51
2022/10/21 05:36:01;;;;;;;23.55;16.33;;;;;;;;;;5052138;28;20033;-49
2022/10/21 05:38:29;;;;;;;20.08;15.30;;;;;;;;;;5052582;28;20070;-49
2022/10/21 05:40:56;;;;;;;21.70;14.90;;;;;;;;;;5052038;28;20116;-48
2022/10/21 05:43:23;;;;;;;26.75;15.05;;;;;;;;;;5052233;28;20020;-47
2022/10/21 05:45:50;;;;;;;20.75;14.93;;;;;;;;;;5051979;28;20040;-51
2022/10/21 05:48:17;;;;;;;21.05;15.07;;;;;;;;;;5052331;28;20491;-50
2022/10/21 05:50:47;;;;;;;24.33;16.23;;;;;;;;;;5051436;28;20029;-48
2022/10/21 05:53:14;;;;;;;20.85;15.05;;;;;;;;;;5052078;28;20493;-48
2022/10/21 05:55:41;;;;;;;20.88;15.63;;;;;;;;;;5051876;28;20017;-50
2022/10/21 05:58:08;;;;;;;21.13;15.45;;;;;;;;;;5051856;28;20033;-47
2022/10/21 06:00:35;;;;;;;21.20;15.32;;;;;;;;;;5051975;28;20164;-49
2022/10/21 06:03:02;;;;;;;20.25;14.15;;;;;;;;;;5049692;28;20116;-47
2022/10/21 06:05:29;;;;;;;17.85;13.13;;;;;;;;;;5051886;28;20025;-48
2022/10/21 06:07:56;;;;;;;19.42;14.27;;;;;;;;;;5051667;28;20055;-47
2022/10/21 06:10:23;;;;;;;19.80;14.35;;;;;;;;;;5051272;28;20033;-47
2022/10/21 06:12:49;;;;;;;17.63;13.70;;;;;;;;;;5051223;28;20401;-49
2022/10/21 06:15:16;;;;;;;18.80;13.30;;;;;;;;;;5051740;28;20013;-47
2022/10/21 06:17:43;;;;;;;20.67;13.65;;;;;;;;;;5051851;28;20024;-47
2022/10/21 06:20:10;;;;;;;21.15;14.25;;;;;;;;;;5051242;28;20041;-48
2022/10/21 06:22:37;;;;;;;20.13;13.77;;;;;;;;;;5051535;28;20049;-47
2022/10/21 06:25:04;;;;;;;18.13;14.00;;;;;;;;;;5051582;28;20025;-47
2022/10/21 06:27:31;;;;;;;18.60;13.93;;;;;;;;;;5033577;28;20033;-48
2022/10/21 06:29:58;;;;;;;19.25;14.55;;;;;;;;;;5051339;28;20025;-49
2022/10/21 06:32:25;;;;;;;18.48;13.13;;;;;;;;;;5051695;28;20556;-49
2022/10/21 06:34:52;;;;;;;17.65;12.90;;;;;;;;;;5051510;28;20031;-48
2022/10/21 06:37:19;;;;;;;18.77;13.15;;;;;;;;;;5051301;28;20025;-49
2022/10/21 06:39:46;;;;;;;16.75;12.13;;;;;;;;;;5051463;28;20029;-52
2022/10/21 06:42:14;;;;;;;18.25;12.38;;;;;;;;;;5051363;28;20036;-47
2022/10/21 06:44:42;;;;;;;16.70;11.70;;;;;;;;;;5051540;28;20029;-49
2022/10/21 06:47:09;;;;;;;17.25;11.98;;;;;;;;;;5051454;28;20056;-47
2022/10/21 06:49:36;;;;;;;17.83;11.85;;;;;;;;;;5051306;28;20550;-49
2022/10/21 06:52:03;;;;;;;15.55;11.60;;;;;;;;;;5051328;28;20033;-50
2022/10/21 06:54:30;;;;;;;15.82;11.73;;;;;;;;;;5051384;28;20027;-47
2022/10/21 06:56:57;;;;;;;16.80;11.65;;;;;;;;;;5051353;28;20037;-48
2022/10/21 06:59:24;;;;;;;18.10;12.18;;;;;;;;;;5051372;28;20534;-50
2022/10/21 07:01:51;;;;;;;15.18;11.52;;;;;;;;;;5033204;28;20033;-48
2022/10/21 07:04:18;;;;;;;16.70;10.85;;;;;;;;;;5051305;28;20060;-47
2022/10/21 07:06:45;;;;;;;17.90;11.38;;;;;;;;;;5051359;28;20497;-48
2022/10/21 07:09:12;;;;;;;15.82;10.85;;;;;;;;;;5050898;28;20463;-49
2022/10/21 07:11:39;;;;;;;15.55;11.40;;;;;;;;;;5051236;28;20021;-47
2022/10/21 07:14:06;;;;;;;18.02;11.73;;;;;;;;;;5051216;28;20385;-47
2022/10/21 07:16:34;;;;;;;16.60;11.88;;;;;;;;;;5051167;28;20029;-47
2022/10/21 07:19:01;;;;;;;16.38;11.48;;;;;;;;;;5051139;28;20092;-49
2022/10/21 07:21:30;;;;;;;14.48;10.68;;;;;;;;;;5050603;28;20482;-47
2022/10/21 07:23:58;;;;;;;13.55;9.70;;;;;;;;;;5054160;28;20111;-49
2022/10/21 07:26:25;;;;;;;12.45;10.02;;;;;;;;;;5054773;28;20074;-47
2022/10/21 07:28:54;;;;;;;14.13;10.85;;;;;;;;;;5054812;28;20029;-47
2022/10/21 07:31:21;;;;;;;15.05;10.88;;;;;;;;;;5054577;28;20025;-51
2022/10/21 07:33:48;;;;;;;13.23;9.65;;;;;;;;;;5054500;28;20029;-48
2022/10/21 07:36:18;;;;;;;14.32;10.18;;;;;;;;;;5054590;28;20025;-48
2022/10/21 07:38:45;;;;;;;13.13;9.60;;;;;;;;;;5054624;28;20019;-47
2022/10/21 07:41:20;;;;;;;11.75;9.07;;;;;;;;;;5054311;28;20037;-48
2022/10/21 07:43:47;;;;;;;14.20;9.82;;;;;;;;;;5054444;28;20032;-48
2022/10/21 07:46:14;;;;;;;13.52;9.82;;;;;;;;;;5054228;28;20021;-47
2022/10/21 07:48:41;;;;;;;13.73;9.43;;;;;;;;;;5054396;28;20021;-47
2022/10/21 07:51:10;;;;;;;11.88;9.15;;;;;;;;;;5054201;28;20048;-47
2022/10/21 07:53:37;;;;;;;11.63;9.05;;;;;;;;;;5047540;28;20051;-48
2022/10/21 07:56:17;;;;;;;13.57;8.95;;;;;;;;;;5034461;28;20029;-47
2022/10/21 07:58:47;;;;;;;13.00;8.60;;;;;;;;;;5034220;28;20075;-47
2022/10/21 08:01:14;;;;;;;11.23;7.97;;;;;;;;;;5033986;28;20069;-48
2022/10/21 08:03:41;;;;;;;11.02;8.15;;;;;;;;;;5034232;28;20026;-47
2022/10/21 08:06:09;;;;;;;9.98;8.07;;;;;;;;;;5034212;28;20108;-48
2022/10/21 08:08:37;;;;;;;11.93;8.77;;;;;;;;;;5034164;28;20025;-47
2022/10/21 08:11:04;;;;;;;10.55;8.20;;;;;;;;;;5033831;28;20025;-48
2022/10/21 08:13:31;;;;;;;10.25;7.93;;;;;;;;;;5033968;28;20018;-47
2022/10/21 08:15:58;;;;;;;9.88;7.93;;;;;;;;;;5033967;28;20056;-49
2022/10/21 08:18:25;;;;;;;11.82;7.65;;;;;;;;;;5034114;28;20440;-49
2022/10/21 08:20:52;;;;;;;9.75;7.60;;;;;;;;;;5033492;28;20545;-49
2022/10/21 08:23:20;;;;;;;9.63;7.53;;;;;;;;;;5033589;28;20039;-47
2022/10/21 08:25:51;;;;;;;11.32;8.35;;;;;;;;;;5047190;28;20112;-46
2022/10/21 08:28:18;;;;;;;11.20;7.55;;;;;;;;;;5053494;28;20036;-47
2022/10/21 08:30:45;;;;;;;10.35;7.50;;;;;;;;;;5053460;28;20029;-47
2022/10/21 08:33:13;;;;;;;10.13;7.25;;;;;;;;;;5053404;28;20027;-49
2022/10/21 08:35:40;;;;;;;10.98;7.80;;;;;;;;;;5052428;28;20037;-47
2022/10/21 08:38:07;;;;;;;9.77;7.25;;;;;;;;;;5053370;28;20047;-48
2022/10/21 08:40:43;;;;;;;8.98;6.82;;;;;;;;;;5053275;28;20566;-48
2022/10/21 08:43:17;;;;;;;9.85;7.18;;;;;;;;;;5053214;28;20025;-48
2022/10/21 08:45:46;;;;;;;8.70;6.68;;;;;;;;;;5053363;28;20053;-47
2022/10/21 08:48:15;;;;;;;9.85;6.85;;;;;;;;;;5053071;28;20386;-47
2022/10/21 08:50:45;;;;;;;9.48;6.55;;;;;;;;;;5053122;28;20052;-47
2022/10/21 08:53:12;;;;;;;11.30;6.88;;;;;;;;;;5053143;28;20048;-49
2022/10/21 08:55:40;;;;;;;9.02;6.72;;;;;;;;;;5053188;28;20082;-47
2022/10/21 08:58:12;;;;;;;11.00;6.63;;;;;;;;;;5053018;28;20024;-47
2022/10/21 09:00:45;;;;;;;7.93;6.00;;;;;;;;;;5052624;28;20044;-48
2022/10/21 09:03:12;;;;;;;9.02;6.32;;;;;;;;;;5052827;28;20027;-47
2022/10/21 09:06:06;;;;;;;9.18;6.38;;;;;;;;;;5052861;28;20444;-47
2022/10/21 09:08:33;;;;;;;14.65;6.70;;;;;;;;;;5049847;28;20041;-47
2022/10/21 09:11:02;;;;;;;8.20;5.70;;;;;;;;;;5051182;28;20103;-50
2022/10/21 09:13:40;;;;;;;10.73;6.53;;;;;;;;;;5052676;28;20526;-48
2022/10/21 09:16:13;;;;;;;7.32;6.00;;;;;;;;;;5052681;28;20017;-47
2022/10/21 09:18:58;;;;;;;10.88;6.00;;;;;;;;;;5052563;28;20017;-49
2022/10/21 09:21:45;;;;;;;8.05;5.55;;;;;;;;;;5052068;28;20041;-49
2022/10/21 09:24:31;;;;;;;9.50;6.22;;;;;;;;;;5052400;28;20147;-47
2022/10/21 09:26:58;;;;;;;11.93;6.10;;;;;;;;;;5052551;28;20021;-46
2022/10/21 09:29:31;;;;;;;8.95;5.57;;;;;;;;;;5052208;28;20021;-48
2022/10/21 09:32:10;;;;;;;8.48;5.82;;;;;;;;;;5052284;28;20029;-47
2022/10/21 09:34:43;;;;;;;8.18;5.20;;;;;;;;;;5052164;28;20075;-47
2022/10/21 09:37:22;;;;;;;11.02;5.70;;;;;;;;;;5032125;28;20368;-49
2022/10/21 09:39:54;;;;;;;12.02;5.60;;;;;;;;;;5031936;28;20092;-49
2022/10/21 09:42:21;;;;;;;8.40;5.43;;;;;;;;;;5039257;28;20037;-49
2022/10/21 09:44:47;;;;;;;9.82;5.25;;;;;;;;;;5051300;28;20025;-51
2022/10/21 09:47:19;;;;;;;10.43;5.55;;;;;;;;;;5040939;28;20053;-47
2022/10/21 09:49:47;;;;;;;11.90;5.70;;;;;;;;;;5048954;28;20078;-49
2022/10/21 09:52:15;;;;;;;12.98;5.53;;;;;;;;;;5050927;28;20049;-48
2022/10/21 09:54:43;;;;;;;15.20;5.93;;;;;;;;;;5048559;28;20035;-49
2022/10/21 09:57:09;;;;;;;10.35;5.05;;;;;;;;;;5050275;28;20431;-48
2022/10/21 09:59:49;;;;;;;10.57;5.07;;;;;;;;;;5051854;28;20398;-49
2022/10/21 10:02:17;;;;;;;11.02;5.03;;;;;;;;;;5045700;28;20546;-49
2022/10/21 10:04:44;;;;;;;11.00;5.15;;;;;;;;;;5042751;28;20125;-49
2022/10/21 10:07:20;;;;;;;10.27;5.28;;;;;;;;;;5030417;28;20040;-49
2022/10/21 10:09:48;;;;;;;9.40;5.32;;;;;;;;;;5031919;28;20105;-50
2022/10/21 10:12:16;;;;;;;12.88;5.30;;;;;;;;;;5031914;28;20502;-47
2022/10/21 10:14:44;;;;;;;10.35;4.93;;;;;;;;;;5031870;28;20022;-50
2022/10/21 10:17:24;;;;;;;11.05;5.32;;;;;;;;;;5031305;28;20033;-48
2022/10/21 10:20:06;;;;;;;14.18;5.30;;;;;;;;;;5031665;28;20133;-49
2022/10/21 10:22:40;;;;;;;13.48;4.78;;;;;;;;;;5031825;28;20040;-48
2022/10/21 10:25:24;;;;;;;12.40;5.45;;;;;;;;;;5031877;28;20040;-48
2022/10/21 10:28:09;;;;;;;10.82;5.00;;;;;;;;;;5031998;28;20467;-47
2022/10/21 10:30:39;;;;;;;9.30;4.95;;;;;;;;;;5031682;28;20022;-48
2022/10/21 10:33:23;;;;;;;15.10;5.78;;;;;;;;;;5031535;28;20095;-49
2022/10/21 10:35:54;;;;;;;11.90;5.13;;;;;;;;;;5031627;28;20025;-49
2022/10/21 10:38:25;;;;;;;16.17;5.25;;;;;;;;;;5031707;28;20884;-47
2022/10/21 10:40:52;;;;;;;14.93;5.03;;;;;;;;;;5031517;28;20108;-48
2022/10/21 10:43:19;;;;;;;17.70;5.13;;;;;;;;;;5031452;28;20041;-47
2022/10/21 10:45:55;;;;;;;15.15;5.57;;;;;;;;;;5030232;28;20025;-47
2022/10/21 10:48:24;;;;;;;14.63;5.05;;;;;;;;;;5045389;28;20032;-49
2022/10/21 10:50:51;;;;;;;13.60;5.40;;;;;;;;;;5051465;28;20049;-47
2022/10/21 10:53:24;;;;;;;11.43;4.50;;;;;;;;;;5051304;28;20425;-49
2022/10/21 10:55:55;;;;;;;11.13;5.05;;;;;;;;;;5051298;28;20025;-47
2022/10/21 10:58:23;;;;;;;14.10;5.38;;;;;;;;;;5035293;28;20477;-47
2022/10/21 11:00:52;;;;;;;14.80;5.10;;;;;;;;;;5055232;28;20428;-47
2022/10/21 11:03:23;;;;;;;14.80;4.75;;;;;;;;;;5054961;28;20459;-47
2022/10/21 11:05:51;;;;;;;12.93;5.38;;;;;;;;;;5055143;28;20381;-47
2022/10/21 11:08:27;;;;;;;15.63;4.63;;;;;;;;;;5055077;28;20057;-47
2022/10/21 11:11:02;;;;;;;16.55;4.65;;;;;;;;;;5054941;28;20096;-48
2022/10/21 11:13:29;;;;;;;12.73;4.28;;;;;;;;;;5054823;28;20051;-50
2022/10/21 11:16:14;;;;;;;39.30;6.15;;;;;;;;;;5054859;28;20071;-47
2022/10/21 11:18:48;;;;;;;72.00;7.82;;;;;;;;;;5054701;28;20025;-60
2022/10/21 11:21:25;;;;;;;35.53;6.60;;;;;;;;;;5048804;28;20398;-60
2022/10/21 11:24:04;;;;;;;63.55;7.28;;;;;;;;;;5053354;28;20083;-58
2022/10/21 11:26:39;;;;;;;43.60;6.90;;;;;;;;;;5054430;28;20040;-58
2022/10/21 11:29:09;;;;;;;30.90;6.30;;;;;;;;;;5052092;28;20426;-60
2022/10/21 11:31:36;;;;;;;42.83;6.80;;;;;;;;;;5053737;28;20103;-59
2022/10/21 11:34:11;;;;;;;31.48;4.97;;;;;;;;;;5053857;28;20028;-59
2022/10/21 11:36:46;;;;;;;34.35;4.80;;;;;;;;;;5053794;28;20035;-60
2022/10/21 11:39:16;;;;;;;30.65;3.90;;;;;;;;;;5050334;28;20114;-58
2022/10/21 11:41:50;;;;;;;44.55;5.40;;;;;;;;;;5052295;28;20033;-58
2022/10/21 11:44:30;;;;;;;44.80;4.70;;;;;;;;;;5035973;28;20021;-62
2022/10/21 11:47:03;;;;;;;36.58;4.25;;;;;;;;;;5052952;28;20016;-62
2022/10/21 11:49:45;;;;;;;55.38;5.80;;;;;;;;;;5052679;28;20029;-62
2022/10/21 11:52:18;;;;;;;33.03;4.75;;;;;;;;;;5053855;28;20048;-61
2022/10/21 11:55:08;;;;;;;30.80;3.67;;;;;;;;;;5054132;28;20033;-61
2022/10/21 11:57:58;;;;;;;58.03;6.13;;;;;;;;;;5017048;28;20435;-61
2022/10/21 12:00:26;;;;;;;54.75;4.00;;;;;;;;;;5042251;28;20044;-63
2022/10/21 12:02:56;;;;;;;39.25;4.22;;;;;;;;;;5053248;28;20032;-61
2022/10/21 12:05:29;;;;;;;27.30;3.00;;;;;;;;;;5051214;28;20025;-61
2022/10/21 12:07:56;;;;;;;48.00;4.97;;;;;;;;;;5053283;28;20021;-61
2022/10/21 12:10:41;;;;;;;85.68;7.60;;;;;;;;;;5052951;28;20097;-61
2022/10/21 12:13:13;;;;;;;90.00;8.20;;;;;;;;;;5053670;28;20493;-61
2022/10/21 12:15:47;;;;;;;53.42;4.53;;;;;;;;;;5053410;28;20134;-61
2022/10/21 12:18:16;;;;;;;44.08;3.58;;;;;;;;;;5053552;28;20032;-60
2022/10/21 12:20:45;;;;;;;41.25;4.40;;;;;;;;;;5050503;28;20080;-61
2022/10/21 12:23:14;;;;;;;34.20;4.57;;;;;;;;;;5051814;28;20028;-60
2022/10/21 12:25:44;;;;;;;39.80;4.63;;;;;;;;;;5053612;28;20415;-57
2022/10/21 12:28:18;;;;;;;37.22;3.75;;;;;;;;;;5053657;28;20104;-56
2022/10/21 12:31:14;;;;;;;47.85;4.50;;;;;;;;;;5053307;28;20068;-57
2022/10/21 12:33:43;;;;;;;41.17;3.90;;;;;;;;;;5034708;28;20434;-59
2022/10/21 12:36:18;;;;;;;44.42;4.68;;;;;;;;;;5053324;28;20049;-61
2022/10/21 12:38:55;;;;;;;39.20;3.15;;;;;;;;;;5052895;28;20108;-56
2022/10/21 12:41:25;;;;;;;40.50;3.35;;;;;;;;;;5052770;28;20394;-58
2022/10/21 12:43:54;;;;;;;51.65;3.70;;;;;;;;;;5053530;28;20109;-60
2022/10/21 12:46:26;;;;;;;26.40;3.03;;;;;;;;;;5053370;28;20056;-60
2022/10/21 12:48:54;;;;;;;24.23;3.58;;;;;;;;;;5052702;28;20385;-59
2022/10/21 12:51:26;;;;;;;26.15;2.92;;;;;;;;;;5048748;28;20390;-57
2022/10/21 12:53:59;;;;;;;41.80;5.03;;;;;;;;;;5051789;28;20095;-59
2022/10/21 12:56:31;;;;;;;46.08;3.90;;;;;;;;;;5052093;28;20036;-58
2022/10/21 12:59:01;;;;;;;24.90;3.47;;;;;;;;;;5052044;28;20025;-55
2022/10/21 13:01:31;;;;;;;98.43;9.25;;;;;;;;;;5052559;28;20039;-56
2022/10/21 13:03:58;;;;;;;51.22;4.72;;;;;;;;;;5052709;28;20550;-55
2022/10/21 13:06:45;;;;;;;41.97;4.65;;;;;;;;;;5051221;28;20056;-59
2022/10/21 13:09:32;;;;;;;34.42;3.42;;;;;;;;;;5010889;28;20116;-56
2022/10/21 13:12:05;;;;;;;34.45;2.80;;;;;;;;;;5052757;28;20395;-55
2022/10/21 13:14:41;;;;;;;36.03;2.53;;;;;;;;;;5052167;28;20024;-60
2022/10/21 13:17:36;;;;;;;44.33;3.03;;;;;;;;;;5052624;28;20490;-55
2022/10/21 13:20:15;;;;;;;29.92;3.65;;;;;;;;;;5021207;28;20485;-59
2022/10/21 13:22:43;;;;;;;47.75;5.22;;;;;;;;;;5052321;28;20571;-59
2022/10/21 13:25:16;;;;;;;39.95;3.22;;;;;;;;;;5052660;28;20029;-59
2022/10/21 13:27:45;;;;;;;37.08;4.20;;;;;;;;;;5052591;28;20029;-58
2022/10/21 13:30:26;;;;;;;32.03;3.15;;;;;;;;;;5052491;28;20025;-55
2022/10/21 13:33:03;;;;;;;30.17;3.15;;;;;;;;;;5031435;28;20078;-54
2022/10/21 13:35:45;;;;;;;39.42;3.67;;;;;;;;;;5032445;28;20025;-52
2022/10/21 13:38:24;;;;;;;50.38;3.83;;;;;;;;;;5031541;28;20021;-58
2022/10/21 13:40:52;;;;;;;47.92;3.85;;;;;;;;;;5032188;28;20495;-58
2022/10/21 13:43:27;;;;;;;49.03;4.85;;;;;;;;;;5031693;28;20037;-57
2022/10/21 13:46:03;;;;;;;39.97;3.70;;;;;;;;;;5032223;28;20033;-52
2022/10/21 13:48:30;;;;;;;41.70;3.45;;;;;;;;;;5045164;28;20440;-54
2022/10/21 13:51:14;;;;;;;60.55;4.68;;;;;;;;;;5051988;28;20045;-56
2022/10/21 13:53:44;;;;;;;47.30;5.75;;;;;;;;;;5051490;28;20475;-56
2022/10/21 13:56:29;;;;;;;57.75;5.78;;;;;;;;;;5052312;28;20036;-54
2022/10/21 13:58:57;;;;;;;55.35;4.97;;;;;;;;;;5050896;28;20025;-54
2022/10/21 14:01:26;;;;;;;60.30;4.18;;;;;;;;;;5051917;28;20032;-58
2022/10/21 14:03:54;;;;;;;41.35;4.97;;;;;;;;;;5051248;28;20036;-60
2022/10/21 14:06:30;;;;;;;37.53;4.03;;;;;;;;;;5051874;28;20028;-56
2022/10/21 14:08:58;;;;;;;33.78;4.30;;;;;;;;;;5051440;28;20470;-55
2022/10/21 14:11:30;;;;;;;28.25;4.00;;;;;;;;;;5051405;28;20514;-56
2022/10/21 14:13:59;;;;;;;42.92;5.15;;;;;;;;;;5051088;28;20436;-53
2022/10/21 14:16:32;;;;;;;29.98;3.53;;;;;;;;;;5051719;28;20112;-58
2022/10/21 14:18:59;;;;;;;39.55;5.03;;;;;;;;;;5051689;28;20105;-56
2022/10/21 14:21:27;;;;;;;53.40;5.15;;;;;;;;;;5050667;28;20498;-58
2022/10/21 14:23:56;;;;;;;50.00;5.38;;;;;;;;;;5050903;28;20495;-54
2022/10/21 14:26:25;;;;;;;57.25;5.57;;;;;;;;;;5051447;28;20110;-51
2022/10/21 14:28:52;;;;;;;40.42;5.10;;;;;;;;;;5051386;28;20028;-53
2022/10/21 14:31:19;;;;;;;54.72;5.65;;;;;;;;;;5050876;28;20441;-49
2022/10/21 14:33:48;;;;;;;58.75;5.80;;;;;;;;;;5054164;28;20037;-50
2022/10/21 14:36:20;;;;;;;52.20;6.13;;;;;;;;;;5055729;28;20064;-57
2022/10/21 14:38:50;;;;;;;41.55;5.10;;;;;;;;;;5055664;28;20025;-55
2022/10/21 14:41:19;;;;;;;36.45;4.68;;;;;;;;;;5054816;28;20060;-61